sensor_id;sensor_type;location;lat;lon;timestamp;temperature;humidity
9209;DHT22;4639;48.862;9.188;2023-09-12T00:01:36;21.40;99.90
9209;DHT22;4639;48.862;9.188;2023-09-12T00:04:02;21.60;99.90
9209;DHT22;4639;48.862;9.188;2023-09-12T00:06:27;21.30;99.90
9209;DHT22;4639;48.862;9.188;2023-09-12T00:08:53;21.20;99.90
9209;DHT22;4639;48.862;9.188;2023-09-12T00:11:19;21.20;99.90
9209;DHT22;4639;48.862;9.188;2023-09-12T00:13:44;21.20;99.90
9209;DHT22;4639;48.862;9.188;2023-09-12T00:16:10;21.20;99.90
9209;DHT22;4639;48.862;9.188;2023-09-12T00:18:37;21.10;99.90
9209;DHT22;4639;48.862;9.188;2023-09-12T00:21:03;21.20;99.90
9209;DHT22;4639;48.862;9.188;2023-09-12T00:23:29;21.10;99.90
9209;DHT22;4639;48.862;9.188;2023-09-12T00:25:56;21.10;99.90
9209;DHT22;4639;48.862;9.188;2023-09-12T00:28:21;21.10;99.90
9209;DHT22;4639;48.862;9.188;2023-09-12T00:30:47;21.00;99.90
9209;DHT22;4639;48.862;9.188;2023-09-12T00:33:13;20.90;99.90
9209;DHT22;4639;48.862;9.188;2023-09-12T00:35:38;21.00;99.90
9209;DHT22;4639;48.862;9.188;2023-09-12T00:38:04;20.90;99.90
9209;DHT22;4639;48.862;9.188;2023-09-12T00:40:31;20.90;99.90
9209;DHT22;4639;48.862;9.188;2023-09-12T00:42:58;20.80;99.90
9209;DHT22;4639;48.862;9.188;2023-09-12T00:45:24;20.80;99.90
9209;DHT22;4639;48.862;9.188;2023-09-12T00:47:50;20.80;99.90
9209;DHT22;4639;48.862;9.188;2023-09-12T00:50:16;20.80;99.90
9209;DHT22;4639;48.862;9.188;2023-09-12T00:52:43;20.90;99.90
9209;DHT22;4639;48.862;9.188;2023-09-12T00:55:09;20.90;99.90
9209;DHT22;4639;48.862;9.188;2023-09-12T00:57:35;21.20;99.90
9209;DHT22;4639;48.862;9.188;2023-09-12T01:00:05;20.90;99.90
9209;DHT22;4639;48.862;9.188;2023-09-12T01:02:46;20.90;99.90
9209;DHT22;4639;48.862;9.188;2023-09-12T01:05:13;20.90;99.90
9209;DHT22;4639;48.862;9.188;2023-09-12T01:07:40;20.90;99.90
9209;DHT22;4639;48.862;9.188;2023-09-12T01:10:07;20.90;99.90
9209;DHT22;4639;48.862;9.188;2023-09-12T01:12:33;20.90;99.90
9209;DHT22;4639;48.862;9.188;2023-09-12T01:14:59;20.90;99.90
9209;DHT22;4639;48.862;9.188;2023-09-12T01:17:25;20.90;99.90
9209;DHT22;4639;48.862;9.188;2023-09-12T01:19:51;20.90;99.90
9209;DHT22;4639;48.862;9.188;2023-09-12T01:28:06;20.70;99.90
9209;DHT22;4639;48.862;9.188;2023-09-12T01:30:35;20.70;99.90
9209;DHT22;4639;48.862;9.188;2023-09-12T01:33:01;20.70;99.90
9209;DHT22;4639;48.862;9.188;2023-09-12T01:35:27;20.70;99.90
9209;DHT22;4639;48.862;9.188;2023-09-12T01:37:53;20.60;99.90
9209;DHT22;4639;48.862;9.188;2023-09-12T01:43:23;20.50;99.90
9209;DHT22;4639;48.862;9.188;2023-09-12T01:45:53;20.50;99.90
9209;DHT22;4639;48.862;9.188;2023-09-12T01:48:21;20.50;99.90
9209;DHT22;4639;48.862;9.188;2023-09-12T01:50:48;20.40;99.90
9209;DHT22;4639;48.862;9.188;2023-09-12T01:53:14;20.40;99.90
9209;DHT22;4639;48.862;9.188;2023-09-12T01:55:42;20.40;99.90
9209;DHT22;4639;48.862;9.188;2023-09-12T01:58:08;20.40;99.90
9209;DHT22;4639;48.862;9.188;2023-09-12T02:00:34;20.40;99.90
9209;DHT22;4639;48.862;9.188;2023-09-12T02:03:01;20.30;99.90
9209;DHT22;4639;48.862;9.188;2023-09-12T02:05:27;20.20;99.90
9209;DHT22;4639;48.862;9.188;2023-09-12T02:07:52;20.20;99.90
9209;DHT22;4639;48.862;9.188;2023-09-12T02:10:18;20.20;99.90
9209;DHT22;4639;48.862;9.188;2023-09-12T02:12:43;20.30;99.90
9209;DHT22;4639;48.862;9.188;2023-09-12T02:15:09;20.20;99.90
9209;DHT22;4639;48.862;9.188;2023-09-12T02:17:35;20.20;99.90
9209;DHT22;4639;48.862;9.188;2023-09-12T02:20:01;20.20;99.90
9209;DHT22;4639;48.862;9.188;2023-09-12T02:22:26;20.20;99.90
9209;DHT22;4639;48.862;9.188;2023-09-12T02:24:52;20.20;99.90
9209;DHT22;4639;48.862;9.188;2023-09-12T02:27:17;20.10;99.90
9209;DHT22;4639;48.862;9.188;2023-09-12T02:29:43;20.00;99.90
9209;DHT22;4639;48.862;9.188;2023-09-12T02:32:09;20.10;99.90
9209;DHT22;4639;48.862;9.188;2023-09-12T02:34:34;20.10;99.90
9209;DHT22;4639;48.862;9.188;2023-09-12T02:37:00;20.10;99.90
9209;DHT22;4639;48.862;9.188;2023-09-12T02:39:26;20.10;99.90
9209;DHT22;4639;48.862;9.188;2023-09-12T02:41:51;20.10;99.90
9209;DHT22;4639;48.862;9.188;2023-09-12T02:44:17;20.30;99.90
9209;DHT22;4639;48.862;9.188;2023-09-12T02:46:42;20.10;99.90
9209;DHT22;4639;48.862;9.188;2023-09-12T02:49:08;20.20;99.90
9209;DHT22;4639;48.862;9.188;2023-09-12T02:51:33;20.10;99.90
9209;DHT22;4639;48.862;9.188;2023-09-12T02:53:59;20.10;99.90
9209;DHT22;4639;48.862;9.188;2023-09-12T02:56:25;20.10;99.90
9209;DHT22;4639;48.862;9.188;2023-09-12T02:58:50;20.10;99.90
9209;DHT22;4639;48.862;9.188;2023-09-12T03:01:17;20.00;99.90
9209;DHT22;4639;48.862;9.188;2023-09-12T03:03:43;20.00;99.90
9209;DHT22;4639;48.862;9.188;2023-09-12T03:06:09;20.00;99.90
9209;DHT22;4639;48.862;9.188;2023-09-12T03:08:35;20.30;99.90
9209;DHT22;4639;48.862;9.188;2023-09-12T03:11:00;20.10;99.90
9209;DHT22;4639;48.862;9.188;2023-09-12T03:13:28;20.00;99.90
9209;DHT22;4639;48.862;9.188;2023-09-12T03:15:53;20.10;99.90
9209;DHT22;4639;48.862;9.188;2023-09-12T03:18:19;20.00;99.90
9209;DHT22;4639;48.862;9.188;2023-09-12T03:20:45;20.00;99.90
9209;DHT22;4639;48.862;9.188;2023-09-12T03:23:10;19.90;99.90
9209;DHT22;4639;48.862;9.188;2023-09-12T03:25:39;19.90;99.90
9209;DHT22;4639;48.862;9.188;2023-09-12T03:28:05;19.90;99.90
9209;DHT22;4639;48.862;9.188;2023-09-12T03:30:33;19.90;99.90
9209;DHT22;4639;48.862;9.188;2023-09-12T03:32:58;19.80;99.90
9209;DHT22;4639;48.862;9.188;2023-09-12T03:35:25;19.90;99.90
9209;DHT22;4639;48.862;9.188;2023-09-12T03:37:51;20.00;99.90
9209;DHT22;4639;48.862;9.188;2023-09-12T03:40:16;19.80;99.90
9209;DHT22;4639;48.862;9.188;2023-09-12T03:42:42;19.80;99.90
9209;DHT22;4639;48.862;9.188;2023-09-12T03:45:08;19.80;99.90
9209;DHT22;4639;48.862;9.188;2023-09-12T03:47:33;19.70;99.90
9209;DHT22;4639;48.862;9.188;2023-09-12T03:49:59;19.70;99.90
9209;DHT22;4639;48.862;9.188;2023-09-12T03:52:25;19.70;99.90
9209;DHT22;4639;48.862;9.188;2023-09-12T03:54:50;19.60;99.90
9209;DHT22;4639;48.862;9.188;2023-09-12T03:57:16;19.50;99.90
9209;DHT22;4639;48.862;9.188;2023-09-12T03:59:41;19.50;99.90
9209;DHT22;4639;48.862;9.188;2023-09-12T04:02:08;19.40;99.90
9209;DHT22;4639;48.862;9.188;2023-09-12T04:04:33;19.40;99.90
9209;DHT22;4639;48.862;9.188;2023-09-12T04:06:59;19.30;99.90
9209;DHT22;4639;48.862;9.188;2023-09-12T04:09:24;19.30;99.90
9209;DHT22;4639;48.862;9.188;2023-09-12T04:11:50;19.20;99.90
9209;DHT22;4639;48.862;9.188;2023-09-12T04:14:15;19.20;99.90
9209;DHT22;4639;48.862;9.188;2023-09-12T04:16:41;19.20;99.90
9209;DHT22;4639;48.862;9.188;2023-09-12T04:19:07;19.30;99.90
9209;DHT22;4639;48.862;9.188;2023-09-12T04:21:32;19.20;99.90
9209;DHT22;4639;48.862;9.188;2023-09-12T04:23:58;19.20;99.90
9209;DHT22;4639;48.862;9.188;2023-09-12T04:26:23;19.20;99.90
9209;DHT22;4639;48.862;9.188;2023-09-12T04:28:49;19.20;99.90
9209;DHT22;4639;48.862;9.188;2023-09-12T04:31:15;19.20;99.90
9209;DHT22;4639;48.862;9.188;2023-09-12T04:33:41;19.20;99.90
9209;DHT22;4639;48.862;9.188;2023-09-12T04:36:06;19.20;99.90
9209;DHT22;4639;48.862;9.188;2023-09-12T04:38:32;19.20;99.90
9209;DHT22;4639;48.862;9.188;2023-09-12T04:41:00;19.20;99.90
9209;DHT22;4639;48.862;9.188;2023-09-12T04:43:33;19.30;99.90
9209;DHT22;4639;48.862;9.188;2023-09-12T04:45:58;19.30;99.90
9209;DHT22;4639;48.862;9.188;2023-09-12T04:48:24;19.20;99.90
9209;DHT22;4639;48.862;9.188;2023-09-12T04:50:50;19.20;99.90
9209;DHT22;4639;48.862;9.188;2023-09-12T04:53:16;19.30;99.90
9209;DHT22;4639;48.862;9.188;2023-09-12T04:55:41;19.20;99.90
9209;DHT22;4639;48.862;9.188;2023-09-12T04:58:07;19.20;99.90
9209;DHT22;4639;48.862;9.188;2023-09-12T05:00:33;19.20;99.90
9209;DHT22;4639;48.862;9.188;2023-09-12T05:02:59;19.30;99.90
9209;DHT22;4639;48.862;9.188;2023-09-12T05:05:24;19.10;99.90
9209;DHT22;4639;48.862;9.188;2023-09-12T05:07:50;19.10;99.90
9209;DHT22;4639;48.862;9.188;2023-09-12T05:10:17;19.10;99.90
9209;DHT22;4639;48.862;9.188;2023-09-12T05:12:43;19.10;99.90
9209;DHT22;4639;48.862;9.188;2023-09-12T05:15:09;19.10;99.90
9209;DHT22;4639;48.862;9.188;2023-09-12T05:17:34;19.10;99.90
9209;DHT22;4639;48.862;9.188;2023-09-12T05:20:00;19.20;99.90
9209;DHT22;4639;48.862;9.188;2023-09-12T05:22:26;19.20;99.90
9209;DHT22;4639;48.862;9.188;2023-09-12T05:24:52;19.30;99.90
9209;DHT22;4639;48.862;9.188;2023-09-12T05:27:18;19.30;99.90
9209;DHT22;4639;48.862;9.188;2023-09-12T05:29:43;19.30;99.90
9209;DHT22;4639;48.862;9.188;2023-09-12T05:32:09;19.60;99.90
9209;DHT22;4639;48.862;9.188;2023-09-12T05:34:35;19.30;99.90
9209;DHT22;4639;48.862;9.188;2023-09-12T05:37:00;19.40;99.90
9209;DHT22;4639;48.862;9.188;2023-09-12T05:39:26;19.50;99.90
9209;DHT22;4639;48.862;9.188;2023-09-12T05:41:51;19.50;99.90
9209;DHT22;4639;48.862;9.188;2023-09-12T05:44:17;19.50;99.90
9209;DHT22;4639;48.862;9.188;2023-09-12T05:46:47;19.50;99.90
9209;DHT22;4639;48.862;9.188;2023-09-12T05:49:14;19.50;99.90
9209;DHT22;4639;48.862;9.188;2023-09-12T05:51:40;19.50;99.90
9209;DHT22;4639;48.862;9.188;2023-09-12T05:54:06;19.70;99.90
9209;DHT22;4639;48.862;9.188;2023-09-12T05:56:31;19.80;99.90
9209;DHT22;4639;48.862;9.188;2023-09-12T05:58:57;19.80;99.90
9209;DHT22;4639;48.862;9.188;2023-09-12T06:01:22;19.90;99.90
9209;DHT22;4639;48.862;9.188;2023-09-12T06:03:48;19.90;99.90
9209;DHT22;4639;48.862;9.188;2023-09-12T06:06:14;20.00;99.90
9209;DHT22;4639;48.862;9.188;2023-09-12T06:08:40;20.10;99.90
9209;DHT22;4639;48.862;9.188;2023-09-12T06:11:05;20.00;99.90
9209;DHT22;4639;48.862;9.188;2023-09-12T06:13:31;20.10;99.90
9209;DHT22;4639;48.862;9.188;2023-09-12T06:15:58;20.00;99.90
9209;DHT22;4639;48.862;9.188;2023-09-12T06:18:24;20.00;99.90
9209;DHT22;4639;48.862;9.188;2023-09-12T06:20:49;20.10;99.90
9209;DHT22;4639;48.862;9.188;2023-09-12T06:23:15;20.20;99.90
9209;DHT22;4639;48.862;9.188;2023-09-12T06:25:41;20.30;99.90
9209;DHT22;4639;48.862;9.188;2023-09-12T06:28:09;20.30;99.90
9209;DHT22;4639;48.862;9.188;2023-09-12T06:30:35;20.40;99.90
9209;DHT22;4639;48.862;9.188;2023-09-12T06:33:00;20.60;99.90
9209;DHT22;4639;48.862;9.188;2023-09-12T06:35:26;20.60;99.90
9209;DHT22;4639;48.862;9.188;2023-09-12T06:37:51;20.60;99.90
9209;DHT22;4639;48.862;9.188;2023-09-12T06:40:17;20.70;99.90
9209;DHT22;4639;48.862;9.188;2023-09-12T06:42:43;20.80;99.90
9209;DHT22;4639;48.862;9.188;2023-09-12T06:45:09;20.90;99.90
9209;DHT22;4639;48.862;9.188;2023-09-12T06:47:34;21.00;99.90
9209;DHT22;4639;48.862;9.188;2023-09-12T06:50:00;21.10;99.90
9209;DHT22;4639;48.862;9.188;2023-09-12T06:52:25;21.10;99.90
9209;DHT22;4639;48.862;9.188;2023-09-12T06:54:51;21.20;99.90
9209;DHT22;4639;48.862;9.188;2023-09-12T06:57:16;21.20;99.90
9209;DHT22;4639;48.862;9.188;2023-09-12T06:59:42;21.30;99.90
9209;DHT22;4639;48.862;9.188;2023-09-12T07:02:08;21.30;99.90
9209;DHT22;4639;48.862;9.188;2023-09-12T07:04:35;21.30;99.90
9209;DHT22;4639;48.862;9.188;2023-09-12T07:07:00;21.30;99.90
9209;DHT22;4639;48.862;9.188;2023-09-12T07:09:26;21.40;99.90
9209;DHT22;4639;48.862;9.188;2023-09-12T07:11:52;21.40;99.90
9209;DHT22;4639;48.862;9.188;2023-09-12T07:14:18;21.40;99.90
9209;DHT22;4639;48.862;9.188;2023-09-12T07:16:43;21.50;99.90
9209;DHT22;4639;48.862;9.188;2023-09-12T07:19:09;21.50;99.90
9209;DHT22;4639;48.862;9.188;2023-09-12T07:21:35;21.60;99.90
9209;DHT22;4639;48.862;9.188;2023-09-12T07:24:01;21.70;99.90
9209;DHT22;4639;48.862;9.188;2023-09-12T07:26:26;21.80;99.90
9209;DHT22;4639;48.862;9.188;2023-09-12T07:28:52;21.80;99.90
9209;DHT22;4639;48.862;9.188;2023-09-12T07:31:17;21.90;99.90
9209;DHT22;4639;48.862;9.188;2023-09-12T07:33:43;21.90;99.90
9209;DHT22;4639;48.862;9.188;2023-09-12T07:36:09;21.90;99.90
9209;DHT22;4639;48.862;9.188;2023-09-12T07:38:34;21.90;99.90
9209;DHT22;4639;48.862;9.188;2023-09-12T07:41:02;21.90;99.90
9209;DHT22;4639;48.862;9.188;2023-09-12T07:43:28;22.00;99.90
9209;DHT22;4639;48.862;9.188;2023-09-12T07:45:57;22.20;99.90
9209;DHT22;4639;48.862;9.188;2023-09-12T07:48:23;22.50;99.90
9209;DHT22;4639;48.862;9.188;2023-09-12T07:50:49;22.70;99.90
9209;DHT22;4639;48.862;9.188;2023-09-12T07:53:14;23.00;99.90
9209;DHT22;4639;48.862;9.188;2023-09-12T07:55:40;23.30;99.90
9209;DHT22;4639;48.862;9.188;2023-09-12T07:58:16;23.80;99.90
9209;DHT22;4639;48.862;9.188;2023-09-12T08:00:44;23.70;99.90
9209;DHT22;4639;48.862;9.188;2023-09-12T08:03:09;23.80;99.90
9209;DHT22;4639;48.862;9.188;2023-09-12T08:05:35;23.90;99.90
9209;DHT22;4639;48.862;9.188;2023-09-12T08:08:01;24.20;99.90
9209;DHT22;4639;48.862;9.188;2023-09-12T08:10:26;24.30;99.90
9209;DHT22;4639;48.862;9.188;2023-09-12T08:12:52;24.50;99.90
9209;DHT22;4639;48.862;9.188;2023-09-12T08:15:18;24.60;99.90
9209;DHT22;4639;48.862;9.188;2023-09-12T08:17:44;24.60;99.90
9209;DHT22;4639;48.862;9.188;2023-09-12T08:20:10;24.70;99.90
9209;DHT22;4639;48.862;9.188;2023-09-12T08:22:37;24.80;99.90
9209;DHT22;4639;48.862;9.188;2023-09-12T08:25:03;24.90;99.90
9209;DHT22;4639;48.862;9.188;2023-09-12T08:27:28;24.90;99.90
9209;DHT22;4639;48.862;9.188;2023-09-12T08:29:54;24.80;99.90
9209;DHT22;4639;48.862;9.188;2023-09-12T08:32:20;24.70;99.90
9209;DHT22;4639;48.862;9.188;2023-09-12T08:34:45;24.70;99.90
9209;DHT22;4639;48.862;9.188;2023-09-12T08:37:11;24.70;99.90
9209;DHT22;4639;48.862;9.188;2023-09-12T08:39:43;24.80;99.90
9209;DHT22;4639;48.862;9.188;2023-09-12T08:42:12;24.80;99.90
9209;DHT22;4639;48.862;9.188;2023-09-12T08:44:40;24.90;99.90
9209;DHT22;4639;48.862;9.188;2023-09-12T08:47:08;25.00;99.90
9209;DHT22;4639;48.862;9.188;2023-09-12T08:49:35;25.10;99.90
9209;DHT22;4639;48.862;9.188;2023-09-12T08:52:02;25.10;99.90
9209;DHT22;4639;48.862;9.188;2023-09-12T08:54:28;25.10;99.90
9209;DHT22;4639;48.862;9.188;2023-09-12T08:56:54;25.40;99.90
9209;DHT22;4639;48.862;9.188;2023-09-12T08:59:20;25.60;99.90
9209;DHT22;4639;48.862;9.188;2023-09-12T09:01:46;25.70;99.90
9209;DHT22;4639;48.862;9.188;2023-09-12T09:04:12;25.90;99.90
9209;DHT22;4639;48.862;9.188;2023-09-12T09:06:40;26.00;99.90
9209;DHT22;4639;48.862;9.188;2023-09-12T09:09:07;26.30;99.90
9209;DHT22;4639;48.862;9.188;2023-09-12T09:11:34;26.70;99.90
9209;DHT22;4639;48.862;9.188;2023-09-12T09:14:04;26.90;99.90
9209;DHT22;4639;48.862;9.188;2023-09-12T09:16:30;26.90;99.90
9209;DHT22;4639;48.862;9.188;2023-09-12T09:19:00;27.00;99.90
9209;DHT22;4639;48.862;9.188;2023-09-12T09:21:28;27.00;99.90
9209;DHT22;4639;48.862;9.188;2023-09-12T09:23:59;27.20;99.90
9209;DHT22;4639;48.862;9.188;2023-09-12T09:26:25;27.40;99.90
9209;DHT22;4639;48.862;9.188;2023-09-12T09:29:08;27.80;99.90
9209;DHT22;4639;48.862;9.188;2023-09-12T09:31:35;28.10;99.90
9209;DHT22;4639;48.862;9.188;2023-09-12T09:34:01;28.10;99.90
9209;DHT22;4639;48.862;9.188;2023-09-12T09:36:27;28.30;99.90
9209;DHT22;4639;48.862;9.188;2023-09-12T09:38:55;28.50;99.90
9209;DHT22;4639;48.862;9.188;2023-09-12T09:41:22;28.70;99.90
9209;DHT22;4639;48.862;9.188;2023-09-12T09:43:51;29.00;99.90
9209;DHT22;4639;48.862;9.188;2023-09-12T09:46:17;29.30;99.90
9209;DHT22;4639;48.862;9.188;2023-09-12T09:48:50;29.70;99.90
9209;DHT22;4639;48.862;9.188;2023-09-12T09:51:17;30.20;99.90
9209;DHT22;4639;48.862;9.188;2023-09-12T09:53:43;30.50;99.90
9209;DHT22;4639;48.862;9.188;2023-09-12T09:56:14;30.80;99.90
9209;DHT22;4639;48.862;9.188;2023-09-12T09:58:56;30.90;99.90
9209;DHT22;4639;48.862;9.188;2023-09-12T10:01:26;31.10;99.90
9209;DHT22;4639;48.862;9.188;2023-09-12T10:03:53;31.10;99.90
9209;DHT22;4639;48.862;9.188;2023-09-12T10:06:20;31.30;99.90
9209;DHT22;4639;48.862;9.188;2023-09-12T10:08:50;31.30;99.90
9209;DHT22;4639;48.862;9.188;2023-09-12T10:11:18;31.50;99.90
9209;DHT22;4639;48.862;9.188;2023-09-12T10:13:52;31.60;99.90
9209;DHT22;4639;48.862;9.188;2023-09-12T10:16:22;31.50;99.90
9209;DHT22;4639;48.862;9.188;2023-09-12T10:24:23;31.80;99.90
9209;DHT22;4639;48.862;9.188;2023-09-12T10:26:53;32.00;99.90
9209;DHT22;4639;48.862;9.188;2023-09-12T10:29:20;32.10;99.90
9209;DHT22;4639;48.862;9.188;2023-09-12T10:31:46;32.20;99.90
9209;DHT22;4639;48.862;9.188;2023-09-12T10:34:14;32.50;99.90
9209;DHT22;4639;48.862;9.188;2023-09-12T10:36:40;32.80;99.90
9209;DHT22;4639;48.862;9.188;2023-09-12T10:39:07;33.10;99.90
9209;DHT22;4639;48.862;9.188;2023-09-12T10:41:37;33.30;99.90
9209;DHT22;4639;48.862;9.188;2023-09-12T10:44:09;33.40;99.90
9209;DHT22;4639;48.862;9.188;2023-09-12T10:46:38;33.30;99.90
9209;DHT22;4639;48.862;9.188;2023-09-12T10:49:09;33.20;99.90
9209;DHT22;4639;48.862;9.188;2023-09-12T10:51:43;33.20;99.90
9209;DHT22;4639;48.862;9.188;2023-09-12T10:54:13;33.00;99.90
9209;DHT22;4639;48.862;9.188;2023-09-12T10:56:39;32.70;99.90
9209;DHT22;4639;48.862;9.188;2023-09-12T11:01:36;32.80;99.90
9209;DHT22;4639;48.862;9.188;2023-09-12T11:06:46;33.00;99.90
9209;DHT22;4639;48.862;9.188;2023-09-12T11:09:23;32.90;99.90
9209;DHT22;4639;48.862;9.188;2023-09-12T11:14:19;32.50;99.90
9209;DHT22;4639;48.862;9.188;2023-09-12T11:19:51;32.90;99.90
9209;DHT22;4639;48.862;9.188;2023-09-12T11:24:46;33.20;99.90
9209;DHT22;4639;48.862;9.188;2023-09-12T11:27:13;33.40;99.90
9209;DHT22;4639;48.862;9.188;2023-09-12T11:29:39;33.30;99.90
9209;DHT22;4639;48.862;9.188;2023-09-12T11:32:06;33.30;99.90
9209;DHT22;4639;48.862;9.188;2023-09-12T11:34:42;33.30;99.90
9209;DHT22;4639;48.862;9.188;2023-09-12T11:37:08;33.30;99.90
9209;DHT22;4639;48.862;9.188;2023-09-12T11:39:36;33.30;99.90
9209;DHT22;4639;48.862;9.188;2023-09-12T11:42:03;33.40;99.90
9209;DHT22;4639;48.862;9.188;2023-09-12T11:44:30;33.60;99.90
9209;DHT22;4639;48.862;9.188;2023-09-12T11:47:01;33.70;99.90
9209;DHT22;4639;48.862;9.188;2023-09-12T11:49:40;33.70;99.90
9209;DHT22;4639;48.862;9.188;2023-09-12T11:52:11;33.80;99.90
9209;DHT22;4639;48.862;9.188;2023-09-12T11:54:42;33.90;99.90
9209;DHT22;4639;48.862;9.188;2023-09-12T11:57:09;33.90;99.90
9209;DHT22;4639;48.862;9.188;2023-09-12T11:59:42;33.90;99.90
9209;DHT22;4639;48.862;9.188;2023-09-12T12:02:11;33.70;99.90
9209;DHT22;4639;48.862;9.188;2023-09-12T12:04:37;33.50;99.90
9209;DHT22;4639;48.862;9.188;2023-09-12T12:07:03;33.50;99.90
9209;DHT22;4639;48.862;9.188;2023-09-12T12:09:30;33.50;99.90
9209;DHT22;4639;48.862;9.188;2023-09-12T12:11:56;33.70;99.90
9209;DHT22;4639;48.862;9.188;2023-09-12T12:14:26;33.90;99.90
9209;DHT22;4639;48.862;9.188;2023-09-12T12:16:52;33.90;99.90
9209;DHT22;4639;48.862;9.188;2023-09-12T12:19:18;33.90;99.90
9209;DHT22;4639;48.862;9.188;2023-09-12T12:21:43;33.90;99.90
9209;DHT22;4639;48.862;9.188;2023-09-12T12:24:14;34.10;99.90
9209;DHT22;4639;48.862;9.188;2023-09-12T12:26:43;34.40;99.90
9209;DHT22;4639;48.862;9.188;2023-09-12T12:29:10;34.60;99.90
9209;DHT22;4639;48.862;9.188;2023-09-12T12:31:37;34.40;99.90
9209;DHT22;4639;48.862;9.188;2023-09-12T12:34:04;34.40;99.90
9209;DHT22;4639;48.862;9.188;2023-09-12T12:36:30;34.60;99.90
9209;DHT22;4639;48.862;9.188;2023-09-12T12:38:55;34.60;99.90
9209;DHT22;4639;48.862;9.188;2023-09-12T12:41:26;34.50;99.90
9209;DHT22;4639;48.862;9.188;2023-09-12T12:43:53;34.60;99.90
9209;DHT22;4639;48.862;9.188;2023-09-12T12:46:24;34.60;99.90
9209;DHT22;4639;48.862;9.188;2023-09-12T12:48:50;34.60;99.90
9209;DHT22;4639;48.862;9.188;2023-09-12T12:51:18;34.60;99.90
9209;DHT22;4639;48.862;9.188;2023-09-12T12:53:46;34.70;99.90
9209;DHT22;4639;48.862;9.188;2023-09-12T12:56:17;34.80;99.90
9209;DHT22;4639;48.862;9.188;2023-09-12T12:58:51;35.10;99.90
9209;DHT22;4639;48.862;9.188;2023-09-12T13:01:17;35.20;99.90
9209;DHT22;4639;48.862;9.188;2023-09-12T13:03:42;35.40;99.90
9209;DHT22;4639;48.862;9.188;2023-09-12T13:06:08;35.50;99.90
9209;DHT22;4639;48.862;9.188;2023-09-12T13:08:42;35.80;99.90
9209;DHT22;4639;48.862;9.188;2023-09-12T13:11:09;35.90;99.90
9209;DHT22;4639;48.862;9.188;2023-09-12T13:13:35;36.10;99.70
9209;DHT22;4639;48.862;9.188;2023-09-12T13:16:02;36.20;99.90
9209;DHT22;4639;48.862;9.188;2023-09-12T13:18:33;36.20;99.70
9209;DHT22;4639;48.862;9.188;2023-09-12T13:20:59;36.00;98.90
9209;DHT22;4639;48.862;9.188;2023-09-12T13:23:24;35.80;98.60
9209;DHT22;4639;48.862;9.188;2023-09-12T13:25:51;35.40;99.60
9209;DHT22;4639;48.862;9.188;2023-09-12T13:28:17;35.10;99.60
9209;DHT22;4639;48.862;9.188;2023-09-12T13:30:42;34.90;99.90
9209;DHT22;4639;48.862;9.188;2023-09-12T13:33:08;34.70;99.90
9209;DHT22;4639;48.862;9.188;2023-09-12T13:35:34;34.70;99.90
9209;DHT22;4639;48.862;9.188;2023-09-12T13:37:59;34.70;99.90
9209;DHT22;4639;48.862;9.188;2023-09-12T13:40:25;34.80;99.90
9209;DHT22;4639;48.862;9.188;2023-09-12T13:42:53;34.80;99.90
9209;DHT22;4639;48.862;9.188;2023-09-12T13:45:18;34.90;99.90
9209;DHT22;4639;48.862;9.188;2023-09-12T13:47:44;35.00;99.90
9209;DHT22;4639;48.862;9.188;2023-09-12T13:50:09;35.20;99.90
9209;DHT22;4639;48.862;9.188;2023-09-12T13:52:35;35.40;99.90
9209;DHT22;4639;48.862;9.188;2023-09-12T13:55:01;35.50;99.90
9209;DHT22;4639;48.862;9.188;2023-09-12T13:57:29;35.50;99.90
9209;DHT22;4639;48.862;9.188;2023-09-12T13:59:54;35.50;99.90
9209;DHT22;4639;48.862;9.188;2023-09-12T14:02:20;35.50;99.90
9209;DHT22;4639;48.862;9.188;2023-09-12T14:04:45;35.50;99.90
9209;DHT22;4639;48.862;9.188;2023-09-12T14:07:11;35.50;99.90
9209;DHT22;4639;48.862;9.188;2023-09-12T14:09:37;35.50;99.90
9209;DHT22;4639;48.862;9.188;2023-09-12T14:12:02;35.50;99.90
9209;DHT22;4639;48.862;9.188;2023-09-12T14:14:28;35.50;99.90
9209;DHT22;4639;48.862;9.188;2023-09-12T14:16:54;35.40;99.90
9209;DHT22;4639;48.862;9.188;2023-09-12T14:19:19;35.50;99.90
9209;DHT22;4639;48.862;9.188;2023-09-12T14:21:45;35.50;99.90
9209;DHT22;4639;48.862;9.188;2023-09-12T14:24:10;35.50;99.90
9209;DHT22;4639;48.862;9.188;2023-09-12T14:26:36;35.60;99.90
9209;DHT22;4639;48.862;9.188;2023-09-12T14:29:01;35.70;99.90
9209;DHT22;4639;48.862;9.188;2023-09-12T14:31:27;35.90;99.90
9209;DHT22;4639;48.862;9.188;2023-09-12T14:33:53;35.60;99.90
9209;DHT22;4639;48.862;9.188;2023-09-12T14:36:18;35.40;99.90
9209;DHT22;4639;48.862;9.188;2023-09-12T14:38:44;35.40;99.90
9209;DHT22;4639;48.862;9.188;2023-09-12T14:41:12;35.30;99.90
9209;DHT22;4639;48.862;9.188;2023-09-12T14:43:38;35.20;99.90
9209;DHT22;4639;48.862;9.188;2023-09-12T14:46:03;35.10;99.90
9209;DHT22;4639;48.862;9.188;2023-09-12T14:48:31;35.00;99.80
9209;DHT22;4639;48.862;9.188;2023-09-12T14:50:59;34.80;99.70
9209;DHT22;4639;48.862;9.188;2023-09-12T14:53:26;34.40;98.60
9209;DHT22;4639;48.862;9.188;2023-09-12T14:55:53;34.20;99.90
9209;DHT22;4639;48.862;9.188;2023-09-12T14:58:18;34.30;99.90
9209;DHT22;4639;48.862;9.188;2023-09-12T15:00:44;34.20;99.90
9209;DHT22;4639;48.862;9.188;2023-09-12T15:03:10;34.10;99.90
9209;DHT22;4639;48.862;9.188;2023-09-12T15:05:35;34.10;99.90
9209;DHT22;4639;48.862;9.188;2023-09-12T15:08:01;34.00;99.90
9209;DHT22;4639;48.862;9.188;2023-09-12T15:10:29;33.90;99.90
9209;DHT22;4639;48.862;9.188;2023-09-12T15:12:55;33.90;99.90
9209;DHT22;4639;48.862;9.188;2023-09-12T15:15:21;33.70;99.90
9209;DHT22;4639;48.862;9.188;2023-09-12T15:17:47;33.70;99.90
9209;DHT22;4639;48.862;9.188;2023-09-12T15:20:12;33.70;99.90
9209;DHT22;4639;48.862;9.188;2023-09-12T15:22:38;33.60;99.90
9209;DHT22;4639;48.862;9.188;2023-09-12T15:25:04;33.50;99.90
9209;DHT22;4639;48.862;9.188;2023-09-12T15:27:29;33.40;99.90
9209;DHT22;4639;48.862;9.188;2023-09-12T15:29:55;33.50;99.90
9209;DHT22;4639;48.862;9.188;2023-09-12T15:32:21;33.50;99.90
9209;DHT22;4639;48.862;9.188;2023-09-12T15:34:46;33.40;99.90
9209;DHT22;4639;48.862;9.188;2023-09-12T15:37:13;33.30;99.90
9209;DHT22;4639;48.862;9.188;2023-09-12T15:39:39;33.20;99.90
9209;DHT22;4639;48.862;9.188;2023-09-12T15:42:06;33.10;99.90
9209;DHT22;4639;48.862;9.188;2023-09-12T15:44:31;33.20;99.90
9209;DHT22;4639;48.862;9.188;2023-09-12T15:46:57;33.50;99.90
9209;DHT22;4639;48.862;9.188;2023-09-12T15:49:27;33.60;99.90
9209;DHT22;4639;48.862;9.188;2023-09-12T15:51:54;33.60;99.90
9209;DHT22;4639;48.862;9.188;2023-09-12T15:54:20;33.40;99.90
9209;DHT22;4639;48.862;9.188;2023-09-12T15:56:45;33.30;99.90
9209;DHT22;4639;48.862;9.188;2023-09-12T15:59:11;33.10;99.90
9209;DHT22;4639;48.862;9.188;2023-09-12T16:01:36;33.00;99.90
9209;DHT22;4639;48.862;9.188;2023-09-12T16:04:02;32.90;99.90
9209;DHT22;4639;48.862;9.188;2023-09-12T16:06:28;32.90;99.90
9209;DHT22;4639;48.862;9.188;2023-09-12T16:08:53;33.10;99.90
9209;DHT22;4639;48.862;9.188;2023-09-12T16:11:19;33.20;99.90
9209;DHT22;4639;48.862;9.188;2023-09-12T16:13:44;33.30;99.90
9209;DHT22;4639;48.862;9.188;2023-09-12T16:16:10;33.20;99.90
9209;DHT22;4639;48.862;9.188;2023-09-12T16:18:36;33.20;99.90
9209;DHT22;4639;48.862;9.188;2023-09-12T16:21:03;33.30;99.90
9209;DHT22;4639;48.862;9.188;2023-09-12T16:23:29;33.60;99.90
9209;DHT22;4639;48.862;9.188;2023-09-12T16:25:58;33.90;99.90